createdAt,value
2022-11-16T00:16:26.222Z,0
2022-11-16T00:36:26.215Z,0
2022-11-16T00:56:33.186Z,0
2022-11-16T01:36:26.241Z,0
2022-11-16T01:56:26.074Z,0
2022-11-16T02:16:26.045Z,0
2022-11-16T02:56:26.038Z,0
2022-11-16T03:16:25.975Z,0
2022-11-16T03:36:25.908Z,0
2022-11-16T03:56:25.864Z,0
2022-11-16T04:16:25.927Z,0
2022-11-16T04:36:25.807Z,0
2022-11-16T04:56:25.803Z,0
2022-11-16T05:16:25.728Z,0
2022-11-16T05:36:25.711Z,0
2022-11-16T05:56:25.724Z,0
2022-11-16T06:16:32.975Z,5
2022-11-16T06:36:32.746Z,22
2022-11-16T06:56:25.673Z,43
2022-11-16T07:36:32.632Z,232
2022-11-16T07:56:25.503Z,195
2022-11-16T08:16:25.584Z,203
2022-11-16T08:36:39.426Z,278
2022-11-16T08:56:25.383Z,348
2022-11-16T09:36:32.310Z,620
2022-11-16T09:56:25.327Z,511
2022-11-16T10:16:25.324Z,431
2022-11-16T10:36:25.301Z,540
2022-11-16T10:56:25.259Z,374
2022-11-16T11:16:25.224Z,257
2022-11-16T11:36:25.217Z,382
2022-11-16T11:56:25.064Z,299
2022-11-16T12:16:39.113Z,230
2022-11-16T12:36:25.018Z,240
2022-11-16T12:56:25.055Z,237
2022-11-16T13:16:24.916Z,200
2022-11-16T13:36:24.985Z,170
2022-11-16T13:56:36.984Z,112
2022-11-16T14:16:24.829Z,69
2022-11-16T14:36:24.874Z,39
2022-11-16T14:56:31.758Z,13
2022-11-16T15:16:24.822Z,5
2022-11-16T15:36:24.804Z,0
2022-11-16T15:56:24.636Z,0
2022-11-16T17:36:24.513Z,0
2022-11-16T18:16:24.533Z,0
2022-11-16T18:36:24.514Z,0
2022-11-16T18:56:24.358Z,0
2022-11-16T19:16:29.398Z,0
2022-11-16T19:36:24.330Z,0
2022-11-16T19:56:24.687Z,0
2022-11-16T20:16:24.314Z,0
2022-11-16T20:36:24.284Z,0
2022-11-16T20:56:24.300Z,0
2022-11-16T21:16:31.316Z,0
2022-11-16T21:36:24.284Z,0
2022-11-16T21:56:24.204Z,0
2022-11-16T22:16:38.216Z,0
2022-11-16T22:36:31.099Z,0
2022-11-16T22:56:37.993Z,0
2022-11-16T23:16:24.057Z,0
2022-11-16T23:36:23.987Z,0
2022-11-16T23:56:23.957Z,0
